Map

Track Data

SID SEASON NUMBER BASIN SUBBASIN NAME ISO_TIME NATURE LAT LON WMO_WIND WMO_PRES WMO_AGENCY TRACK_TYPE DIST2LAND LANDFALL IFLAG USA_AGENCY USA_ATCF_ID USA_LAT USA_LON USA_RECORD USA_STATUS USA_WIND USA_PRES USA_SSHS USA_R34_NE USA_R34_SE USA_R34_SW USA_R34_NW USA_R50_NE USA_R50_SE USA_R50_SW USA_R50_NW USA_R64_NE USA_R64_SE USA_R64_SW USA_R64_NW USA_POCI USA_ROCI USA_RMW USA_EYE TOKYO_LAT TOKYO_LON TOKYO_GRADE TOKYO_WIND TOKYO_PRES TOKYO_R50_DIR TOKYO_R50_LONG TOKYO_R50_SHORT TOKYO_R30_DIR TOKYO_R30_LONG TOKYO_R30_SHORT TOKYO_LAND CMA_LAT CMA_LON CMA_CAT CMA_WIND CMA_PRES HKO_LAT HKO_LON HKO_CAT HKO_WIND HKO_PRES NEWDELHI_LAT NEWDELHI_LON NEWDELHI_GRADE NEWDELHI_WIND NEWDELHI_PRES NEWDELHI_CI NEWDELHI_DP NEWDELHI_POCI REUNION_LAT REUNION_LON REUNION_TYPE REUNION_WIND REUNION_PRES REUNION_TNUM REUNION_CI REUNION_RMW REUNION_R34_NE REUNION_R34_SE REUNION_R34_SW REUNION_R34_NW REUNION_R50_NE REUNION_R50_SE REUNION_R50_SW REUNION_R50_NW REUNION_R64_NE REUNION_R64_SE REUNION_R64_SW REUNION_R64_NW BOM_LAT BOM_LON BOM_TYPE BOM_WIND BOM_PRES BOM_TNUM BOM_CI BOM_RMW BOM_R34_NE BOM_R34_SE BOM_R34_SW BOM_R34_NW BOM_R50_NE BOM_R50_SE BOM_R50_SW BOM_R50_NW BOM_R64_NE BOM_R64_SE BOM_R64_SW BOM_R64_NW BOM_ROCI BOM_POCI BOM_EYE BOM_POS_METHOD BOM_PRES_METHOD NADI_LAT NADI_LON NADI_CAT NADI_WIND NADI_PRES WELLINGTON_LAT WELLINGTON_LON WELLINGTON_WIND WELLINGTON_PRES DS824_LAT DS824_LON DS824_STAGE DS824_WIND DS824_PRES TD9636_LAT TD9636_LON TD9636_STAGE TD9636_WIND TD9636_PRES TD9635_LAT TD9635_LON TD9635_WIND TD9635_PRES TD9635_ROCI NEUMANN_LAT NEUMANN_LON NEUMANN_CLASS NEUMANN_WIND NEUMANN_PRES MLC_LAT MLC_LON MLC_CLASS MLC_WIND MLC_PRES USA_GUST BOM_GUST BOM_GUST_PER REUNION_GUST REUNION_GUST_PER USA_SEAHGT USA_SEARAD_NE USA_SEARAD_SE USA_SEARAD_SW USA_SEARAD_NW STORM_SPEED STORM_DIR
1972189N11171 1972 57 WP MM TESS 1972-07-07 00:00:00 TS 11.2000 170.900 main 2464 2459 O________OOO__ jtwc_wp WP101972 11.2000 170.900 35 0 11.2000 170.900 TC 35 11.2000 170.900 2 35 11.2000 170.900 35 -99 5 306
1972189N11171 1972 57 WP MM TESS 1972-07-07 03:00:00 TS 11.3437 170.698 main 2464 2464 P________PPP__ WP101972 11.3400 170.688 35 0 11.3400 170.688 TC 35 11.3548 170.731 2 36 11.3400 170.688 35 -99 5 309
1972189N11171 1972 57 WP MM TESS 1972-07-07 06:00:00 TS 11.5044 170.515 main 2474 2474 O________OPO__ jtwc_wp WP101972 11.5000 170.500 35 0 11.5000 170.500 TC 35 11.5176 170.560 2 37 11.5000 170.500 35 -99 5 316
1972189N11171 1972 57 WP MM TESS 1972-07-07 09:00:00 TS 11.6935 170.358 main 2490 2490 P________PPP__ WP101972 11.6925 170.350 37 0 11.6925 170.350 TC 37 11.6966 170.384 2 38 11.6925 170.350 37 -99 4 341
1972189N11171 1972 57 WP MM TESS 1972-07-07 12:00:00 TS 11.8778 170.383 994 tokyo main 2510 2510 OO_O_____OOO__ jtwc_wp WP101972 11.9000 170.200 40 0 11.0000 173.200 2 994 0 0 0 12.4000 170.500 TD 25 1002 11.9000 170.200 TC 40 11.9000 170.200 2 40 11.9000 170.200 40 -99 4 351
1972189N11171 1972 57 WP MM TESS 1972-07-07 15:00:00 TS 12.0919 170.284 main 2525 2525 PP_P_____PPP__ WP101972 12.1000 170.007 42 0 11.6104 172.431 2 994 0 0 12.4500 170.350 TD 25 1002 12.1000 170.007 TC 42 12.1294 170.007 2 42 12.1000 170.007 42 -99 5 329
1972189N11171 1972 57 WP MM TESS 1972-07-07 18:00:00 TS 12.3109 170.115 994 tokyo main 2537 2537 OO_O_____OPO__ jtwc_wp WP101972 12.3000 169.800 45 0 12.1000 171.700 2 994 0 0 0 12.5000 170.200 TD 25 1002 12.3000 169.800 TC 45 12.3600 169.808 2 45 12.3000 169.800 45 -99 6 319
1972189N11171 1972 57 WP MM TESS 1972-07-07 21:00:00 TS 12.5122 169.913 main 2548 2548 PP_P_____PPP__ WP101972 12.5225 169.593 47 0 12.3949 171.047 2 994 0 0 12.5500 170.050 TD 25 1002 12.5225 169.593 TC 47 12.5606 169.604 2 47 12.5225 169.593 47 -99 6 309
1972189N11171 1972 57 WP MM TESS 1972-07-08 00:00:00 TS 12.6667 169.667 994 tokyo main 2560 2552 OO_O_____OOO__ jtwc_wp WP101972 12.7000 169.400 50 0 12.6000 170.500 2 994 0 0 0 12.6000 169.900 TD 25 1002 12.7000 169.400 TC 50 12.7000 169.400 2 50 12.7000 169.400 50 -99 5 301
1972189N11171 1972 57 WP MM TESS 1972-07-08 03:00:00 TS 12.7745 169.459 main 2562 2554 PP_P_____PPP__ WP101972 12.7949 169.257 52 0 12.8724 170.040 2 994 0 0 12.6500 169.750 TD 25 1002 12.7949 169.257 TC 52 12.7397 169.192 2 50 12.7949 169.257 52 -99 4 291
1972189N11171 1972 57 WP MM TESS 1972-07-08 06:00:00 TS 12.8196 169.264 994 tokyo main 2554 2542 OO_O_____OPO__ jtwc_wp WP101972 12.8000 169.100 55 0 13.1000 169.700 2 994 0 0 0 12.7000 169.600 TD 25 1002 12.8000 169.100 TC 55 12.7175 168.985 2 50 12.8000 169.100 55 -99 4 273
1972189N11171 1972 57 WP MM TESS 1972-07-08 09:00:00 TS 12.7978 169.036 main 2542 2534 PP_P_____PPP__ WP101972 12.7151 168.835 52 0 13.2299 169.470 2 994 0 0 12.7500 169.458 TD 25 1002 12.7151 168.835 TC 52 12.6616 168.785 2 50 12.7151 168.835 52 -99 4 261
1972189N11171 1972 57 WP MM TESS 1972-07-08 12:00:00 TS 12.7500 168.833 994 tokyo main 2534 2520 OO_O_____OOO__ jtwc_wp WP101972 12.6000 168.600 50 0 13.3000 169.300 2 994 0 0 0 12.8000 169.300 TD 25 1002 12.6000 168.600 TC 50 12.6000 168.600 2 50 12.6000 168.600 50 -99 3 257
1972189N11171 1972 57 WP MM TESS 1972-07-08 15:00:00 TS 12.7244 168.716 main 2520 2516 PP_P_____PPP__ WP101972 12.5349 168.550 52 0 13.3575 169.092 2 992 0 0 12.8500 169.107 TD 25 1002 12.5349 168.550 TC 52 12.5343 168.448 2 48 12.5349 168.550 52 -99 2 261
1972189N11171 1972 57 WP MM TESS 1972-07-08 18:00:00 TS 12.7125 168.601 990 tokyo main 2516 2508 OO_O_____OPO__ jtwc_wp WP101972 12.5000 168.500 55 0 13.4000 168.900 9 990 0 0 0 12.9000 168.900 TD 25 1002 12.5000 168.500 TC 55 12.4748 168.307 2 47 12.5000 168.500 55 -99 3 267
1972189N11171 1972 57 WP MM TESS 1972-07-08 21:00:00 TS 12.7068 168.408 main 2508 2501 PP_P_____PPP__ WP101972 12.4625 168.280 50 0 13.4500 168.742 9 990 0 0 12.9500 168.700 TD 27 1001 12.4625 168.280 TC 50 12.4530 168.163 2 46 12.4625 168.280 50 -99 4 275
1972189N11171 1972 57 WP MM TESS 1972-07-09 00:00:00 TS 12.7500 168.183 990 tokyo main 2512 2501 OO_O_____OOO__ jtwc_wp WP101972 12.5000 168.000 45 0 13.5000 168.600 9 990 0 0 0 13.0000 168.500 TD 30 1000 12.5000 168.000 TC 45 12.5000 168.000 2 45 12.5000 168.000 45 -99 5 291
1972189N11171 1972 57 WP MM TESS 1972-07-09 03:00:00 TS 12.8769 167.963 main 2515 2509 PP_P_____PPP__ WP101972 12.6625 167.743 42 0 13.5499 168.480 9 990 0 0 13.0425 168.300 TD 30 1000 12.6625 167.743 TC 42 12.6817 167.773 2 42 12.6625 167.743 42 -99 5 305
1972189N11171 1972 57 WP MM TESS 1972-07-09 06:00:00 TS 13.0546 167.738 990 tokyo main 2515 2509 OO_O_____OPO__ jtwc_wp WP101972 12.9000 167.500 40 0 13.6000 168.300 9 990 0 0 0 13.1000 168.100 TD 30 1000 12.9000 167.500 TC 40 12.9277 167.528 2 40 12.9000 167.500 40 -99 6 311
1972189N11171 1972 57 WP MM TESS 1972-07-09 09:00:00 TS 13.2600 167.504 main 2520 2513 PP_P_____PPP__ WP101972 13.1725 167.278 37 0 13.6575 167.995 9 990 0 0 13.2000 167.900 TD 30 1000 13.1725 167.278 TC 37 13.1848 167.295 2 37 13.1725 167.278 37 -99 6 311
1972189N11171 1972 57 WP MM TESS 1972-07-09 12:00:00 TS 13.4333 167.283 990 tokyo main 2514 2509 OO_O_____OOO__ jtwc_wp WP101972 13.4000 167.100 35 0 13.7000 167.600 9 990 0 0 0 13.3000 167.700 TD 30 1000 13.4000 167.100 TC 35 13.4000 167.100 2 35 13.4000 167.100 35 -99 5 301
1972189N11171 1972 57 WP MM TESS 1972-07-09 15:00:00 TS 13.5066 167.090 main 2509 2495 PP_P_____PPP__ WP101972 13.4800 166.977 35 0 13.7377 167.128 9 990 0 0 13.3575 167.500 TD 30 1000 13.4800 166.977 TC 35 13.5043 166.978 2 35 13.4800 166.977 35 -99 4 285
1972189N11171 1972 57 WP MM TESS 1972-07-09 18:00:00 TS 13.5266 166.933 990 tokyo main 2495 2488 OO_O_____OPO__ jtwc_wp WP101972 13.5000 166.900 35 0 13.7000 166.700 9 990 0 0 0 13.4000 167.300 TD 30 1000 13.5000 166.900 TC 35 13.5599 166.897 2 35 13.5000 166.900 35 -99 3 277
1972189N11171 1972 57 WP MM TESS 1972-07-09 21:00:00 TS 13.5372 166.818 main 2488 2481 PP_P_____PPP__ WP101972 13.5500 166.850 35 0 13.5374 166.432 9 990 0 0 13.4500 167.085 TD 30 1000 13.5500 166.850 TC 35 13.5855 166.843 2 35 13.5500 166.850 35 -99 2 272
1972189N11171 1972 57 WP MM TESS 1972-07-10 00:00:00 TS 13.5333 166.733 990 tokyo main 2481 2474 OO_O_____OOO__ jtwc_wp WP101972 13.6000 166.800 35 0 13.3000 166.300 9 990 0 0 0 13.5000 166.900 TD 30 1000 13.6000 166.800 TC 35 13.6000 166.800 2 35 13.6000 166.800 35 990 -99 2 268
1972189N11171 1972 57 WP MM TESS 1972-07-10 03:00:00 TS 13.5323 166.641 main 2474 2474 PP_P_____PPP__ WP101972 13.6575 166.693 37 0 13.0350 166.248 9 990 0 0 13.5500 166.785 TD 35 997 13.6575 166.693 TC 37 13.6362 166.735 2 37 13.6575 166.693 37 990 -99 1 268
1972189N11171 1972 57 WP MM TESS 1972-07-10 06:00:00 TS 13.5275 166.580 990 tokyo main 2474 2474 OO_O_____OPO__ jtwc_wp WP101972 13.7000 166.600 40 0 12.8000 166.300 9 990 0 0 0 13.6000 166.700 TS 40 995 13.7000 166.600 TC 40 13.6650 166.678 2 40 13.7000 166.600 40 990 -99 1 259
1972189N11171 1972 57 WP MM TESS 1972-07-10 09:00:00 TS 13.5190 166.568 main 2474 2474 PP_P_____PPP__ WP101972 13.7075 166.585 42 0 12.6550 166.420 9 990 0 0 13.6500 166.600 TS 40 995 13.7075 166.585 TC 42 13.6862 166.632 2 42 13.7075 166.585 42 990 -99 0 0
1972189N11171 1972 57 WP MM TESS 1972-07-10 12:00:00 TS 13.5400 166.608 990 tokyo main 2474 2474 OOOO_____OOO__ jtwc_wp WP101972 13.7000 166.600 45 0 12.6000 166.600 9 990 0 0 0 14.1000 167.200 1 29 1000 13.7000 166.500 TS 40 995 13.7000 166.600 TC 45 13.7000 166.600 2 45 13.7000 166.600 45 990 -99 1 50
1972189N11171 1972 57 WP MM TESS 1972-07-10 15:00:00 TS 13.5700 166.632 main 2483 2483 PPPP_____PPP__ WP101972 13.7000 166.600 45 0 12.5900 166.815 9 990 0 0 14.1476 166.978 1 29 1000 13.7500 166.400 TS 40 995 13.7000 166.600 TC 45 13.6909 166.602 2 46 13.7000 166.600 45 990 -99 1 27
1972189N11171 1972 57 WP MM TESS 1972-07-10 18:00:00 TS 13.6189 166.639 990 tokyo main 2483 2483 OOOO_____OPO__ jtwc_wp WP101972 13.7000 166.600 45 0 12.7000 167.000 9 990 0 0 0 14.2000 166.800 1 29 1000 13.8000 166.300 TS 40 995 13.7000 166.600 TC 45 13.6775 166.615 2 47 13.7000 166.600 45 990 -99 1 0
1972189N11171 1972 57 WP MM TESS 1972-07-10 21:00:00 TS 13.6911 166.638 main 2492 2492 PPPP_____PPP__ WP101972 13.6850 166.615 47 0 13.0000 167.110 9 990 0 0 14.2575 166.693 1 33 998 13.8500 166.200 TS 45 992 13.6850 166.615 TC 47 13.6753 166.621 2 48 13.6850 166.615 47 990 -99 1 346
1972189N11171 1972 57 WP MM TESS 1972-07-11 00:00:00 TS 13.7571 166.600 990 tokyo main 2500 2494 OOOO_____OOO__ jtwc_wp WP101972 13.7000 166.600 50 0 13.3000 167.100 9 990 0 0 0 14.3000 166.600 2 38 996 13.9000 166.100 STS 50 990 13.7000 166.600 TC 50 13.7000 166.600 2 50 13.7000 166.600 50 990 -99 2 313
1972189N11171 1972 57 WP MM TESS 1972-07-11 03:00:00 TS 13.8208 166.495 main 2494 2487 PPPP_____PPP__ WP101972 13.7850 166.515 50 0 13.3650 166.930 9 990 0 0 14.3000 166.450 2 43 996 13.9500 166.000 STS 50 990 13.7850 166.515 TC 50 13.7753 166.541 2 51 13.7850 166.515 50 989 -99 3 302
1972189N11171 1972 57 WP MM TESS 1972-07-11 06:00:00 TS 13.8968 166.365 990 tokyo main 2496 2489 OOOO_____OPO__ jtwc_wp WP101972 13.9000 166.400 50 0 13.4000 166.700 9 990 0 0 0 14.3000 166.300 3 48 996 14.0000 165.900 STS 50 990 13.9000 166.400 TC 50 13.8775 166.453 2 52 13.9000 166.400 50 989 -99 3 308
1972189N11171 1972 57 WP MM TESS 1972-07-11 09:00:00 TS 14.0008 166.256 main 2498 2492 PPPP_____PPP__ WP101972 14.0075 166.300 52 0 13.5924 166.558 9 987 0 0 14.3425 166.200 3 48 993 14.0575 165.800 STS 50 990 14.0075 166.300 TC 52 13.9909 166.338 2 53 14.0075 166.300 52 989 -99 3 313
1972189N11171 1972 57 WP MM TESS 1972-07-11 12:00:00 TS 14.1000 166.143 985 tokyo main 2494 2494 OOOO_____OOO__ jtwc_wp WP101972 14.1000 166.200 55 0 13.8000 166.400 9 985 0 0 0 14.4000 166.100 3 48 990 14.1000 165.700 STS 50 990 14.1000 166.200 TC 55 14.1000 166.200 2 55 14.1000 166.200 55 989 -99 3 305
1972189N11171 1972 57 WP MM TESS 1972-07-11 15:00:00 TS 14.1601 166.021 main 2496 2489 PPPP_____PPP__ WP101972 14.1500 166.122 57 0 13.9150 166.157 9 985 0 0 14.4575 165.958 3 48 990 14.1000 165.607 STS 50 990 14.1500 166.122 TC 57 14.1984 166.055 2 56 14.1500 166.122 57 988 -99 3 293
1972189N11171 1972 57 WP MM TESS 1972-07-11 18:00:00 TS 14.2125 165.870 985 tokyo main 2489 2482 OOOO_____OPO__ jtwc_wp WP101972 14.2000 166.000 60 0 14.0000 165.900 9 985 0 0 0 14.5000 165.800 3 48 990 14.1000 165.500 STS 50 990 14.2000 166.000 TC 60 14.2875 165.888 2 57 14.2000 166.000 60 988 -99 4 292
1972189N11171 1972 57 WP MM TESS 1972-07-11 21:00:00 TS 14.2922 165.676 main 2484 2471 PPPP_____PPP__ WP101972 14.3075 165.773 60 0 14.1074 165.707 9 985 0 0 14.5075 165.650 3 48 987 14.1500 165.358 STS 52 987 14.3075 165.773 TC 60 14.3578 165.702 2 58 14.3075 165.773 60 987 -99 4 290
1972189N11171 1972 57 WP MM TESS 1972-07-12 00:00:00 TS 14.3571 165.457 985 tokyo main 2479 2466 OOOO_____OOO__ jtwc_wp WP101972 14.4000 165.500 60 0 14.2000 165.500 9 985 0 0 0 14.5000 165.500 3 48 985 14.2000 165.200 STS 55 985 14.4000 165.500 TC 60 14.4000 165.500 2 60 14.4000 165.500 60 987 -99 4 282
1972189N11171 1972 57 WP MM TESS 1972-07-12 03:00:00 TS 14.3827 165.239 main 2460 2447 PPPP_____PPP__ WP101972 14.4225 165.242 60 0 14.2651 165.200 9 985 0 0 14.5149 165.380 3 48 985 14.2075 165.050 STS 55 985 14.4225 165.242 TC 60 14.4239 165.314 2 60 14.4225 165.242 60 986 -99 4 272
1972189N11171 1972 57 WP MM TESS 1972-07-12 06:00:00 TS 14.3739 165.016 985 tokyo main 2447 2425 OOOO_____OPO__ jtwc_wp WP101972 14.4000 165.000 60 0 14.3000 164.900 9 985 0 0 0 14.5000 165.200 3 48 985 14.2000 164.900 STS 55 985 14.4000 165.000 TC 60 14.4172 165.110 2 60 14.4000 165.000 60 986 -99 4 265
1972189N11171 1972 57 WP MM TESS 1972-07-12 09:00:00 TS 14.3463 164.812 main 2425 2412 PPPP_____PPP__ WP101972 14.3649 164.815 60 0 14.3224 164.708 9 985 0 0 14.4151 164.872 3 48 985 14.2149 164.780 STS 55 985 14.3649 164.815 TC 60 14.3769 164.876 2 60 14.3649 164.815 60 985 40 4 258
1972189N11171 1972 57 WP MM TESS 1972-07-12 12:00:00 TS 14.2857 164.571 985 tokyo main 2412 2384 OOOO_____OOO__ jtwc_wp WP101972 14.3000 164.600 60 0 14.3000 164.500 9 985 0 0 0 14.3000 164.500 3 48 985 14.2000 164.600 STS 55 985 14.3000 164.600 TC 60 14.3000 164.600 2 60 14.3000 164.600 60 984 180 6 255
1972189N11171 1972 57 WP MM TESS 1972-07-12 15:00:00 TS 14.2041 164.257 main 2384 2350 PPPP_____PPP__ WP101972 14.2225 164.280 65 1 14.2375 164.188 9 982 0 0 14.2074 164.208 3 53 982 14.1225 164.287 STS 55 985 14.2225 164.280 TC 65 14.1941 164.276 2 63 14.2225 164.280 65 983 180 7 253
1972189N11171 1972 57 WP MM TESS 1972-07-12 18:00:00 TS 14.0789 163.887 980 tokyo main 2350 2307 OOOO_____OPO__ jtwc_wp WP101972 14.1000 163.900 70 1 14.1000 163.800 9 980 0 0 0 14.1000 163.900 3 58 980 14.0000 163.900 STS 55 985 14.1000 163.900 TC 70 14.0525 163.910 2 67 14.1000 163.900 70 982 180 8 248
1972189N11171 1972 57 WP MM TESS 1972-07-12 21:00:00 TS 13.9078 163.487 main 2307 2264 PPPP_____PPP__ WP101972 13.9225 163.508 72 1 13.8651 163.342 9 980 0 0 13.9725 163.515 3 63 979 13.8649 163.515 STS 60 982 13.9225 163.508 TC 72 13.8846 163.514 2 71 13.9225 163.508 72 980 180 9 244
1972189N11171 1972 57 WP MM TESS 1972-07-13 00:00:00 TS 13.7000 163.071 980 tokyo main 2264 2222 OOOO_____OOO__ jtwc_wp WP101972 13.7000 163.100 75 1 13.6000 162.900 9 980 0 0 0 13.8000 163.100 4 68 979 13.7000 163.100 T 65 980 13.7000 163.100 TC 75 13.7000 163.100 4 75 13.7000 163.100 75 979 180 9 240
1972189N11171 1972 57 WP MM TESS 1972-07-13 03:00:00 TS 13.4662 162.688 main 2222 2180 PPPP_____PPP__ WP101972 13.4424 162.708 80 1 13.3847 162.615 9 977 0 0 13.5498 162.722 4 68 978 13.5074 162.665 T 67 977 13.4424 162.708 TC 80 13.4940 162.689 4 80 13.4424 162.708 80 977 180 9 239
1972189N11171 1972 57 WP MM TESS 1972-07-13 06:00:00 TS 13.2396 162.281 975 tokyo main 2170 2132 OOOO_____OPO__ jtwc_wp WP101972 13.2000 162.300 85 2 13.2000 162.300 9 975 0 0 0 13.3000 162.300 4 68 977 13.3000 162.200 T 70 975 13.2000 162.300 TC 85 13.2774 162.265 4 85 13.2000 162.300 85 975 180 10 245
1972189N11171 1972 57 WP MM TESS 1972-07-13 09:00:00 TS 13.0639 161.794 main 2132 2084 PPPP_____PPP__ WP101972 13.0274 161.865 90 2 13.0579 161.727 9 975 0 0 13.1503 161.720 4 68 976 13.0851 161.685 T 70 972 13.0274 161.865 TC 90 13.0721 161.833 4 90 13.0274 161.865 90 973 180 10 251
1972189N11171 1972 57 WP MM TESS 1972-07-13 12:00:00 TS 12.9143 161.314 975 tokyo main 2084 2052 OOOO_____OOO__ jtwc_wp WP101972 12.9000 161.400 95 2 12.9000 161.200 9 975 0 0 0 13.0000 161.200 4 68 975 12.9000 161.200 T 70 970 12.9000 161.400 TC 95 12.9000 161.400 4 95 12.9000 161.400 95 972 180 9 250
1972189N11171 1972 57 WP MM TESS 1972-07-13 15:00:00 TS 12.7497 160.922 main 2043 2016 PPPP_____PPP__ WP101972 12.7851 160.885 97 3 12.6197 161.035 9 972 0 0 12.7272 160.970 4 72 971 12.7774 160.828 T 75 967 12.7851 160.885 TC 97 12.7687 160.963 4 97 12.7851 160.885 97 970 210 8 248
1972189N11171 1972 57 WP MM TESS 1972-07-13 18:00:00 TS 12.6250 160.561 970 tokyo main 2016 1995 OOOO_____OPO__ jtwc_wp WP101972 12.7000 160.400 100 3 12.4000 160.900 9 970 0 0 0 12.5000 160.800 4 77 967 12.7000 160.500 T 80 965 12.7000 160.400 TC 100 12.6749 160.528 4 100 12.7000 160.400 100 968 240 7 256
1972189N11171 1972 57 WP MM TESS 1972-07-13 21:00:00 TS 12.5687 160.193 main 1995 1974 PPPP_____PPP__ WP101972 12.6273 160.043 102 3 12.4051 160.488 9 965 0 0 12.4475 160.488 4 82 964 12.6275 160.142 T 85 962 12.6273 160.043 TC 102 12.6187 160.103 4 102 12.6273 160.043 102 966 240 7 266
1972189N11171 1972 57 WP MM TESS 1972-07-14 00:00:00 TS 12.5714 159.814 960 tokyo main 1974 1953 OOOO_____OOO__ jtwc_wp WP101972 12.6000 159.700 105 3 12.5000 160.000 9 960 0 0 0 12.5000 160.100 5 87 962 12.6000 159.800 ST 90 960 12.6000 159.700 TC 105 12.6000 159.700 4 105 12.6000 159.700 105 965 240 8 273
1972189N11171 1972 57 WP MM TESS 1972-07-14 03:00:00 TS 12.6074 159.404 main 1953 1939 PPPP_____PPP__ WP101972 12.6351 159.235 110 3 12.5423 159.607 9 955 0 0 12.5925 159.658 5 92 959 12.6349 159.508 ST 95 957 12.6351 159.235 TC 110 12.5770 159.348 4 108 12.6351 159.235 110 963 240 8 277
1972189N11171 1972 57 WP MM TESS 1972-07-14 06:00:00 TS 12.6706 159.002 950 tokyo main 1943 1928 OOOO_____OPO__ jtwc_wp WP101972 12.7000 158.800 115 4 12.6000 159.200 9 950 0 0 0 12.7000 159.200 5 97 956 12.7000 159.200 SuperT 100 955 12.7000 158.800 TC 115 12.5943 159.014 4 112 12.7000 158.800 115 961 240 7 278
1972189N11171 1972 57 WP MM TESS 1972-07-14 09:00:00 TS 12.7122 158.676 main 1928 1919 PPPP_____PPP__ WP101972 12.7197 158.572 117 4 12.6850 158.707 9 947 0 0 12.7348 158.807 5 106 953 12.7424 158.830 SuperT 102 952 12.7197 158.572 TC 117 12.6645 158.673 4 116 12.7197 158.572 117 959 240 7 281
1972189N11171 1972 57 WP MM TESS 1972-07-14 12:00:00 TS 12.8000 158.314 945 tokyo main 1919 1911 OOOO_____OOO__ jtwc_wp WP101972 12.8000 158.300 120 4 12.8000 158.200 9 945 0 0 0 12.8000 158.400 6 116 950 12.8000 158.400 SuperT 105 950 12.8000 158.300 TC 120 12.8000 158.300 4 120 12.8000 158.300 120 957 240 9 286
1972189N11171 1972 57 WP MM TESS 1972-07-14 15:00:00 TS 12.9644 157.790 main 1917 1908 PPPP_____PPP__ WP101972 13.0129 157.715 122 4 12.9125 157.712 9 945 0 0 12.9624 157.922 6 121 948 12.8549 157.930 SuperT 107 947 13.0129 157.715 TC 122 12.9824 157.821 4 120 13.0129 157.715 122 954 240 11 291
1972189N11171 1972 57 WP MM TESS 1972-07-14 18:00:00 TS 13.2044 157.245 945 tokyo main 1912 1912 OOOO_____OPO__ jtwc_wp WP101972 13.3000 157.100 125 4 13.1000 157.300 9 945 0 0 0 13.2000 157.400 6 126 947 13.0000 157.400 SuperT 110 945 13.3000 157.100 TC 125 13.2308 157.313 4 120 13.3000 157.100 125 952 240 11 298
1972189N11171 1972 57 WP MM TESS 1972-07-14 21:00:00 TS 13.4833 156.792 main 1928 1924 PPPP_____PPP__ WP101972 13.5698 156.697 122 4 13.3972 157.057 9 947 0 0 13.4552 156.813 6 126 947 13.2828 156.755 SuperT 107 947 13.5698 156.697 TC 122 13.5387 156.824 4 120 13.5698 156.697 122 949 270 10 308
1972189N11171 1972 57 WP MM TESS 1972-07-15 00:00:00 TS 13.8429 156.414 950 tokyo main 1945 1945 OOOO_____OOO__ jtwc_wp WP101972 13.9000 156.400 120 4 13.8000 156.800 9 950 0 0 0 13.8000 156.300 6 126 947 13.7000 156.200 SuperT 105 950 13.9000 156.400 TC 120 13.9000 156.400 4 120 13.9000 156.400 120 947 300 11 321
1972189N11171 1972 57 WP MM TESS 1972-07-15 03:00:00 TS 14.3028 156.101 main 1989 1989 PPPP_____PPP__ WP101972 14.3274 156.127 120 4 14.3003 156.286 9 945 0 0 14.2998 155.997 6 126 945 14.2422 155.932 SuperT 105 947 14.3274 156.127 TC 120 14.2950 156.111 4 121 14.3274 156.127 120 945 300 11 330
1972189N11171 1972 57 WP MM TESS 1972-07-15 06:00:00 TS 14.7913 155.856 940 tokyo main 2036 2033 OOOO_____OPO__ jtwc_wp WP101972 14.8000 155.900 120 4 14.8000 155.800 9 940 0 0 0 14.8000 155.800 6 126 943 14.8000 155.800 SuperT 105 945 14.8000 155.900 TC 120 14.7393 155.889 4 122 14.8000 155.900 120 943 300 10 335
1972189N11171 1972 57 WP MM TESS 1972-07-15 09:00:00 TS 15.2051 155.672 main 2073 2073 PPPP_____PPP__ WP101972 15.2499 155.707 122 4 15.1497 155.627 9 940 0 0 15.1074 155.600 6 131 941 15.2149 155.657 SuperT 107 942 15.2499 155.707 TC 122 15.2139 155.698 4 123 15.2499 155.707 122 941 300 9 337
1972189N11171 1972 57 WP MM TESS 1972-07-15 12:00:00 TS 15.6143 155.486 940 tokyo main 2111 2111 OOOO_____OOO__ jtwc_wp WP101972 15.7000 155.500 125 4 15.5000 155.500 9 940 0 0 0 15.4000 155.400 6 136 940 15.6000 155.500 SuperT 110 940 15.7000 155.500 TC 125 15.7000 155.500 4 125 15.7000 155.500 125 939 300 10 333
1972189N11171 1972 57 WP MM TESS 1972-07-15 15:00:00 TS 16.0611 155.215 main 2158 2158 PPPP_____PPP__ WP101972 16.1425 155.207 125 4 15.9851 155.173 9 940 0 0 15.8199 155.172 6 136 940 16.0275 155.280 SuperT 110 940 16.1425 155.207 TC 125 16.1676 155.255 4 125 16.1425 155.207 125 938 300 11 329
1972189N11171 1972 57 WP MM TESS 1972-07-15 18:00:00 TS 16.5346 154.913 940 tokyo main 2195 2195 OOOO_____OPO__ jtwc_wp WP101972 16.6000 154.900 125 4 16.5000 154.800 9 940 0 0 0 16.3000 154.900 6 136 940 16.5000 155.000 SuperT 110 940 16.6000 154.900 TC 125 16.6422 154.994 4 125 16.6000 154.900 125 938 300 11 330
1972189N11171 1972 57 WP MM TESS 1972-07-15 21:00:00 TS 17.0325 154.627 main 2243 2243 PPPP_____PPP__ WP101972 17.1074 154.657 125 4 16.9499 154.492 9 940 0 0 16.7851 154.550 6 136 940 17.0500 154.665 SuperT 110 940 17.1074 154.657 TC 125 17.1207 154.711 4 125 17.1074 154.657 125 938 300 11 331
1972189N11171 1972 57 WP MM TESS 1972-07-16 00:00:00 TS 17.5286 154.329 940 tokyo main 2293 2293 OOOO_____OOO__ jtwc_wp WP101972 17.6000 154.400 125 4 17.4000 154.200 9 940 0 0 0 17.3000 154.200 6 136 940 17.6000 154.300 SuperT 110 940 17.6000 154.400 TC 125 17.6000 154.400 4 125 17.6000 154.400 125 938 300 11 328
1972189N11171 1972 57 WP MM TESS 1972-07-16 03:00:00 TS 17.9790 154.011 main 2342 2288 PPPP_____PPP__ WP101972 17.9925 154.072 125 4 17.8775 153.900 9 940 0 0 17.8498 153.957 6 136 940 18.0649 153.957 SuperT 110 940 17.9925 154.072 TC 125 18.0832 154.046 4 122 17.9925 154.072 125 940 270 11 325
1972189N11171 1972 57 WP MM TESS 1972-07-16 06:00:00 TS 18.4379 153.666 940 tokyo main 2288 2218 OOOO_____OPO__ jtwc_wp WP101972 18.4000 153.700 125 4 18.4000 153.600 9 940 0 0 0 18.4000 153.700 6 136 941 18.5000 153.600 SuperT 110 940 18.4000 153.700 TC 125 18.5652 153.665 4 120 18.4000 153.700 125 942 240 12 326
1972189N11171 1972 57 WP MM TESS 1972-07-16 09:00:00 TS 18.9648 153.299 main 2208 2139 PPPP_____PPP__ WP101972 18.9500 153.308 120 4 19.0072 153.345 9 942 0 0 18.9224 153.337 6 136 943 18.9349 153.215 SuperT 105 942 18.9500 153.308 TC 120 19.0395 153.277 4 117 18.9500 153.308 120 944 240 13 325
1972189N11171 1972 57 WP MM TESS 1972-07-16 12:00:00 TS 19.4857 152.900 945 tokyo main 2139 2078 OOOO_____OOO__ jtwc_wp WP101972 19.5000 152.900 115 4 19.6000 153.000 9 945 0 0 0 19.4000 152.900 6 136 946 19.4000 152.800 SuperT 100 945 19.5000 152.900 TC 115 19.5000 152.900 4 115 19.5000 152.900 115 947 240 13 320
1972189N11171 1972 57 WP MM TESS 1972-07-16 15:00:00 TS 19.9478 152.430 main 2073 2013 PPPP_____PPP__ WP101972 19.9150 152.477 112 3 20.1032 152.371 9 947 0 0 19.8303 152.363 6 131 946 19.9802 152.306 SuperT 97 947 19.9150 152.477 TC 112 19.9758 152.536 4 110 19.9150 152.477 112 948 240 12 316
1972189N11171 1972 57 WP MM TESS 1972-07-16 18:00:00 TS 20.3618 152.013 950 tokyo main 2003 1964 OOOO_____OPO__ jtwc_wp WP101972 20.3000 152.100 110 3 20.5000 151.800 9 950 0 0 0 20.2000 151.900 6 126 946 20.5000 151.900 ST 95 950 20.3000 152.100 TC 110 20.4324 152.190 4 105 20.3000 152.100 110 950 240 10 323
1972189N11171 1972 57 WP MM TESS 1972-07-16 21:00:00 TS 20.7527 151.776 main 1954 1915 PPPP_____PPP__ WP101972 20.7799 151.820 102 3 20.7721 151.624 9 950 0 0 20.5147 151.704 6 126 946 20.7947 151.769 ST 90 950 20.7799 151.820 TC 102 20.8478 151.874 4 100 20.7799 151.820 102 949 240 8 333
1972189N11171 1972 57 WP MM TESS 1972-07-17 00:00:00 TS 21.0857 151.614 950 tokyo main 1915 1885 OOOO_____OOO__ jtwc_wp WP101972 21.2000 151.600 95 2 21.0000 151.600 9 950 0 0 0 20.8000 151.600 6 126 946 21.0000 151.700 ST 85 950 21.2000 151.600 TC 95 21.2000 151.600 4 95 21.2000 151.600 95 949 240 7 330
1972189N11171 1972 57 WP MM TESS 1972-07-17 03:00:00 TS 21.3482 151.415 main 1885 1845 PPPP_____PPP__ WP101972 21.4375 151.385 95 2 21.3075 151.515 9 950 0 0 21.1075 151.400 6 126 946 21.2501 151.458 ST 85 947 21.4375 151.385 TC 95 21.4603 151.377 4 95 21.4375 151.385 95 948 240 6 323
1972189N11171 1972 57 WP MM TESS 1972-07-17 06:00:00 TS 21.5657 151.228 950 tokyo main 1845 1821 OOOO_____OPO__ jtwc_wp WP101972 21.6000 151.200 95 2 21.6000 151.400 9 950 0 0 0 21.4000 151.200 6 126 946 21.5000 151.200 ST 85 945 21.6000 151.200 TC 95 21.6596 151.196 4 95 21.6000 151.200 95 947 240 5 323
1972189N11171 1972 57 WP MM TESS 1972-07-17 09:00:00 TS 21.7788 151.065 main 1821 1791 PPPP_____PPP__ WP101972 21.7925 151.042 95 2 21.8150 151.208 9 950 0 0 21.6725 151.042 6 126 946 21.7574 151.035 ST 85 945 21.7925 151.042 TC 95 21.8291 151.043 4 95 21.7925 151.042 95 946 240 5 325
1972189N11171 1972 57 WP MM TESS 1972-07-17 12:00:00 TS 21.9857 150.914 950 tokyo main 1791 1767 OOOO_____OOO__ jtwc_wp WP101972 22.0000 150.900 95 2 22.0000 151.000 9 950 0 0 0 21.9000 150.900 6 126 946 22.0000 150.900 ST 85 945 22.0000 150.900 TC 95 22.0000 150.900 4 95 22.0000 150.900 95 946 240 5 327
1972189N11171 1972 57 WP MM TESS 1972-07-17 15:00:00 TS 22.2031 150.763 main 1767 1737 PPPP_____PPP__ WP101972 22.2500 150.750 95 2 22.2000 150.842 9 950 0 0 22.0425 150.757 6 121 948 22.2075 150.757 ST 85 947 22.2500 150.750 TC 95 22.2218 150.735 4 93 22.2500 150.750 95 948 210 5 327
1972189N11171 1972 57 WP MM TESS 1972-07-17 18:00:00 TS 22.4214 150.611 950 tokyo main 1737 1712 OOOO_____OPO__ jtwc_wp WP101972 22.5000 150.600 95 2 22.4000 150.700 9 950 0 0 0 22.2000 150.600 6 116 951 22.4000 150.600 ST 85 950 22.5000 150.600 TC 95 22.4500 150.577 4 92 22.5000 150.600 95 951 180 5 326
1972189N11171 1972 57 WP MM TESS 1972-07-17 21:00:00 TS 22.6376 150.447 main 1707 1683 PPPP_____PPP__ WP101972 22.7000 150.450 92 2 22.5925 150.557 9 952 0 0 22.4925 150.393 6 111 952 22.6000 150.400 ST 82 952 22.7000 150.450 TC 92 22.6781 150.432 4 91 22.7000 150.450 92 953 180 5 325
1972189N11171 1972 57 WP MM TESS 1972-07-18 00:00:00 TS 22.8571 150.286 955 tokyo main 1673 1643 OOOO_____OOO__ jtwc_wp WP101972 22.9000 150.300 90 2 22.8000 150.400 9 955 0 0 0 22.8000 150.200 6 106 954 22.8000 150.200 T 80 955 22.9000 150.300 TC 90 22.9000 150.300 4 90 22.9000 150.300 90 955 180 5 327
1972189N11171 1972 57 WP MM TESS 1972-07-18 03:00:00 TS 23.0848 150.131 main 1643 1619 PPPP_____PPP__ WP101972 23.1575 150.135 90 2 23.0425 150.193 9 955 0 0 22.9999 150.092 6 106 956 23.0000 150.035 T 80 957 23.1575 150.135 TC 90 23.0786 150.193 4 90 23.1575 150.135 90 956 180 5 330
1972189N11171 1972 57 WP MM TESS 1972-07-18 06:00:00 TS 23.3078 150.000 955 tokyo main 1619 1595 OOOO_____OPO__ jtwc_wp WP101972 23.4000 150.000 90 2 23.3000 150.000 9 955 0 0 0 23.2000 150.000 6 106 958 23.2000 149.900 T 80 960 23.4000 150.000 TC 90 23.2549 150.099 4 90 23.4000 150.000 90 957 180 5 334
1972189N11171 1972 57 WP MM TESS 1972-07-18 09:00:00 TS 23.4991 149.916 main 1595 1570 PPPP_____PPP__ WP101972 23.5350 149.950 90 2 23.5500 149.885 9 957 0 0 23.5000 149.865 6 101 960 23.3849 149.807 T 80 960 23.5350 149.950 TC 90 23.4536 150.006 4 90 23.5350 149.950 90 958 180 4 338
1972189N11171 1972 57 WP MM TESS 1972-07-18 12:00:00 TS 23.7143 149.829 960 tokyo main 1570 1537 OOOO_____OOO__ jtwc_wp WP101972 23.7000 149.900 90 2 23.8000 149.800 9 960 0 0 0 23.8000 149.700 5 97 962 23.6000 149.700 T 80 960 23.7000 149.900 TC 90 23.7000 149.900 4 90 23.7000 149.900 90 960 180 5 337
1972189N11171 1972 57 WP MM TESS 1972-07-18 15:00:00 TS 24.0020 149.689 main 1537 1498 PPPP_____PPP__ WP101972 24.0125 149.765 87 2 24.0499 149.730 9 962 0 0 24.0000 149.500 5 97 962 23.8775 149.515 T 77 962 24.0125 149.765 TC 87 24.0490 149.781 4 87 24.0125 149.765 87 961 180 7 335
1972189N11171 1972 57 WP MM TESS 1972-07-18 18:00:00 TS 24.3346 149.521 965 tokyo main 1498 1455 OOOO_____OPO__ jtwc_wp WP101972 24.4000 149.600 85 2 24.3000 149.600 9 965 0 0 0 24.2000 149.300 5 97 962 24.2000 149.300 T 75 965 24.4000 149.600 TC 85 24.4423 149.645 4 85 24.4000 149.600 85 963 180 8 336
1972189N11171 1972 57 WP MM TESS 1972-07-18 21:00:00 TS 24.6913 149.352 main 1455 1416 PPPP_____PPP__ WP101972 24.8149 149.472 82 1 24.5352 149.308 9 965 0 0 24.4775 149.142 5 92 962 24.5424 149.107 T 72 965 24.8149 149.472 TC 82 24.8395 149.487 4 82 24.8149 149.472 82 963 180 8 335
1972189N11171 1972 57 WP MM TESS 1972-07-19 00:00:00 TS 25.0429 149.157 965 tokyo main 1416 1371 OOOO_____OOO__ jtwc_wp WP101972 25.2000 149.300 80 1 24.8000 149.000 9 965 0 0 0 24.8000 149.000 5 87 962 24.9000 148.900 T 70 965 25.2000 149.300 TC 80 25.2000 149.300 4 80 25.2000 149.300 80 964 180 8 329
1972189N11171 1972 57 WP MM TESS 1972-07-19 03:00:00 TS 25.3489 148.921 main 1371 1332 PPPP_____PPP__ WP101972 25.4801 149.008 77 1 25.1348 148.850 9 962 0 0 25.1499 148.872 5 82 962 25.2650 148.650 T 67 962 25.4801 149.008 TC 77 25.4522 149.054 4 78 25.4801 149.008 77 964 180 7 323
1972189N11171 1972 57 WP MM TESS 1972-07-19 06:00:00 TS 25.6236 148.669 960 tokyo main 1332 1288 OOOO_____OPO__ jtwc_wp WP101972 25.7000 148.700 75 1 25.5000 148.700 9 960 0 0 0 25.5000 148.700 4 77 962 25.6000 148.400 T 65 960 25.7000 148.700 TC 75 25.6654 148.785 4 77 25.7000 148.700 75 964 180 7 318
1972189N11171 1972 57 WP MM TESS 1972-07-19 09:00:00 TS 25.8662 148.412 main 1288 1258 PPPP_____PPP__ WP101972 25.8850 148.455 75 1 25.8651 148.408 9 960 0 0 25.8152 148.400 4 77 962 25.8575 148.185 T 65 960 25.8850 148.455 TC 75 25.8709 148.523 4 76 25.8850 148.455 75 963 180 6 319
1972189N11171 1972 57 WP MM TESS 1972-07-19 12:00:00 TS 26.1143 148.200 960 tokyo main 1258 1225 OOOO_____OOO__ jtwc_wp WP101972 26.1000 148.300 75 1 26.2000 148.100 9 960 0 0 0 26.1000 148.100 4 77 962 26.1000 148.000 T 65 960 26.1000 148.300 TC 75 26.1000 148.300 4 75 26.1000 148.300 75 962 180 6 334
1972189N11171 1972 57 WP MM TESS 1972-07-19 15:00:00 TS 26.4184 148.109 main 1225 1191 PPPP_____PPP__ WP101972 26.4349 148.300 75 1 26.4499 147.885 9 960 0 0 26.3499 147.935 4 77 962 26.3999 147.850 T 65 960 26.4349 148.300 TC 75 26.4241 148.197 4 73 26.4349 148.300 75 961 210 6 347
1972189N11171 1972 57 WP MM TESS 1972-07-19 18:00:00 TS 26.7388 148.033 960 tokyo main 1191 1158 OOOO_____OPO__ jtwc_wp WP101972 26.8000 148.300 75 1 26.7000 147.700 9 960 0 0 0 26.6000 147.800 4 77 962 26.7000 147.700 T 65 960 26.8000 148.300 TC 75 26.7716 148.129 4 72 26.8000 148.300 75 961 240 7 342
1972189N11171 1972 57 WP MM TESS 1972-07-19 21:00:00 TS 27.0569 147.875 main 1149 1120 PPPP_____PPP__ WP101972 27.1299 148.153 72 1 27.0425 147.500 9 962 0 0 26.8925 147.607 4 77 962 26.9650 147.515 T 65 962 27.1299 148.153 TC 72 27.1084 148.047 4 71 27.1299 148.153 72 962 240 7 331
1972189N11171 1972 57 WP MM TESS 1972-07-20 00:00:00 TS 27.3429 147.657 965 tokyo main 1120 1075 OOOO_____OOO__ jtwc_wp WP101972 27.4000 147.900 70 1 27.4000 147.300 9 965 0 0 0 27.2000 147.400 4 77 962 27.2000 147.300 T 65 965 27.4000 147.900 TC 70 27.4000 147.900 4 70 27.4000 147.900 70 964 240 7 320
1972189N11171 1972 57 WP MM TESS 1972-07-20 03:00:00 TS 27.5711 147.386 main 1075 1049 PPPP_____PPP__ WP101972 27.5726 147.572 67 1 27.7374 147.107 9 965 0 0 27.5299 147.215 4 77 962 27.4075 147.057 T 65 965 27.5726 147.572 TC 67 27.6050 147.606 4 71 27.5726 147.572 67 965 240 7 309
1972189N11171 1972 57 WP MM TESS 1972-07-20 06:00:00 TS 27.7516 147.078 965 tokyo main 1040 1014 OOOO_____OPO__ jtwc_wp WP101972 27.7000 147.200 65 1 28.0000 146.900 9 965 0 0 0 27.8000 147.000 4 77 962 27.6000 146.800 T 65 965 27.7000 147.200 TC 65 27.7609 147.245 4 72 27.7000 147.200 65 966 240 6 301
1972189N11171 1972 57 WP MM TESS 1972-07-20 09:00:00 TS 27.9026 146.760 main 1014 988 PPPP_____PPP__ WP101972 27.8576 146.828 70 1 28.1298 146.687 9 965 0 0 27.9301 146.707 4 77 963 27.7997 146.580 T 65 965 27.8576 146.828 TC 70 27.8862 146.862 4 73 27.8576 146.828 70 966 240 6 296
1972189N11171 1972 57 WP MM TESS 1972-07-20 12:00:00 TS 28.0286 146.443 965 tokyo main 982 962 OOOO_____OOO__ jtwc_wp WP101972 28.0000 146.500 75 1 28.2000 146.400 9 965 0 0 0 28.0000 146.400 4 77 964 28.0000 146.300 T 65 965 28.0000 146.500 TC 75 28.0000 146.500 4 75 28.0000 146.500 75 967 240 6 295
1972189N11171 1972 57 WP MM TESS 1972-07-20 15:00:00 TS 28.1476 146.165 main 962 927 PPPP_____PPP__ WP101972 28.0998 146.292 77 1 28.3002 145.965 9 965 0 0 28.0998 146.157 4 77 964 28.2152 145.873 T 67 965 28.0998 146.292 TC 77 28.1185 146.281 4 73 28.0998 146.292 77 966 210 5 295
1972189N11171 1972 57 WP MM TESS 1972-07-20 18:00:00 TS 28.2618 145.883 965 tokyo main 927 902 OOOO_____OPO__ jtwc_wp WP101972 28.2000 146.100 80 1 28.4000 145.500 9 965 0 0 0 28.2000 145.900 4 77 965 28.4000 145.400 T 70 965 28.2000 146.100 TC 80 28.2326 146.080 4 72 28.2000 146.100 80 966 180 6 294
1972189N11171 1972 57 WP MM TESS 1972-07-20 21:00:00 TS 28.3788 145.582 main 902 871 PPPP_____PPP__ WP101972 28.3348 145.845 75 1 28.4923 145.127 9 965 0 0 28.2848 145.587 4 77 965 28.5149 144.985 T 67 965 28.3348 145.845 TC 75 28.3555 145.840 4 71 28.3348 145.845 75 965 180 6 294
1972189N11171 1972 57 WP MM TESS 1972-07-21 00:00:00 TS 28.5143 145.229 965 tokyo main 871 836 OOOO_____OOO__ jtwc_wp WP101972 28.5000 145.500 70 1 28.6000 144.800 9 965 0 0 0 28.4000 145.200 4 77 966 28.6000 144.600 T 65 965 28.5000 145.500 TC 70 28.5000 145.500 4 70 28.5000 145.500 70 965 180 7 295
1972189N11171 1972 57 WP MM TESS 1972-07-21 03:00:00 TS 28.6892 144.829 main 831 792 PPPP_____PPP__ WP101972 28.6921 145.067 72 1 28.7418 144.552 9 965 0 0 28.5997 144.753 4 77 966 28.6921 144.272 T 65 965 28.6921 145.067 TC 72 28.7145 145.025 4 71 28.6921 145.067 72 965 180 9 295
1972189N11171 1972 57 WP MM TESS 1972-07-21 06:00:00 TS 28.8777 144.320 965 tokyo main 787 739 OOOO_____OPO__ jtwc_wp WP101972 28.9000 144.500 75 1 28.9000 144.200 9 965 0 0 0 28.8000 144.200 4 77 966 28.8000 143.900 T 65 965 28.9000 144.500 TC 75 28.9439 144.440 4 72 28.9000 144.500 75 965 180 11 291
1972189N11171 1972 57 WP MM TESS 1972-07-21 09:00:00 TS 29.0746 143.680 main 739 699 PPPP_____PPP__ WP101972 29.1372 143.811 75 1 29.0721 143.605 9 965 0 0 28.9297 143.552 4 77 966 28.9572 143.410 T 65 965 29.1372 143.811 TC 75 29.1513 143.760 4 73 29.1372 143.811 75 965 180 13 285
1972189N11171 1972 57 WP MM TESS 1972-07-21 12:00:00 TS 29.2143 142.914 965 tokyo main 695 668 OOOO_____OOO__ jtwc_wp WP101972 29.3000 143.000 75 1 29.2000 142.800 9 965 0 0 0 29.0000 142.800 4 77 966 29.1000 142.800 T 65 965 29.3000 143.000 TC 75 29.3000 143.000 4 75 29.3000 143.000 75 966 180 14 276
1972189N11171 1972 57 WP MM TESS 1972-07-21 15:00:00 TS 29.2209 142.048 main 665 643 PPPP_____PPP__ WP101972 29.2800 142.114 75 1 29.2162 141.792 9 965 0 0 29.0003 141.949 4 72 966 29.1720 142.110 T 65 967 29.2800 142.114 TC 75 29.3178 142.141 4 73 29.2800 142.114 75 967 180 15 269
1972189N11171 1972 57 WP MM TESS 1972-07-21 18:00:00 TS 29.1823 141.146 965 tokyo main 640 618 OOOO_____OPO__ jtwc_wp WP101972 29.2000 141.200 75 1 29.2000 140.800 9 965 0 0 0 29.0000 141.100 4 68 967 29.2000 141.300 T 65 970 29.2000 141.200 TC 75 29.2762 141.223 4 72 29.2000 141.200 75 968 180 15 268
1972189N11171 1972 57 WP MM TESS 1972-07-21 21:00:00 TS 29.1798 140.279 main 618 591 PPPP_____PPP__ WP101972 29.1776 140.297 72 1 29.2189 140.090 9 965 0 0 29.0847 140.348 4 68 967 29.2012 140.305 T 65 970 29.1776 140.297 TC 72 29.2210 140.319 4 71 29.1776 140.297 72 968 180 14 271
1972189N11171 1972 57 WP MM TESS 1972-07-22 00:00:00 TS 29.2143 139.514 965 tokyo main 585 548 OOOO_____OOO__ jtwc_wp WP101972 29.2000 139.500 70 1 29.3000 139.500 9 965 0 0 0 29.2000 139.700 4 68 967 29.2000 139.400 T 65 970 29.2000 139.500 TC 70 29.2000 139.500 4 70 29.2000 139.500 70 969 180 12 276
1972189N11171 1972 57 WP MM TESS 1972-07-22 03:00:00 TS 29.2967 138.944 main 543 514 PPPP_____PPP__ WP101972 29.2766 138.905 67 1 29.4921 138.893 9 967 0 0 29.2840 139.207 4 68 968 29.2260 138.905 T 65 970 29.2766 138.905 TC 67 29.2454 138.888 4 68 29.2766 138.905 67 969 180 10 282
1972189N11171 1972 57 WP MM TESS 1972-07-22 06:00:00 TS 29.4199 138.437 970 tokyo main 509 478 OOOO_____OPO__ jtwc_wp WP101972 29.4000 138.400 65 1 29.7000 138.300 9 970 0 0 0 29.4000 138.700 4 68 970 29.3000 138.500 T 65 970 29.4000 138.400 TC 65 29.3397 138.360 4 67 29.4000 138.400 65 970 180 10 285
1972189N11171 1972 57 WP MM TESS 1972-07-22 09:00:00 TS 29.5471 137.866 main 478 436 PPPP_____PPP__ WP101972 29.5117 137.887 65 1 29.7998 137.692 9 970 0 0 29.5854 137.973 4 68 970 29.4200 137.887 T 65 970 29.5117 137.887 TC 65 29.4894 137.853 4 66 29.5117 137.887 65 970 180 11 287
1972189N11171 1972 57 WP MM TESS 1972-07-22 12:00:00 TS 29.7286 137.243 970 tokyo main 433 386 OOOO_____OOO__ jtwc_wp WP101972 29.7000 137.300 65 1 29.9000 137.100 9 970 0 0 0 29.8000 137.200 4 68 970 29.6000 137.200 T 65 970 29.7000 137.300 TC 65 29.7000 137.300 4 65 29.7000 137.300 65 970 180 12 291
1972189N11171 1972 57 WP MM TESS 1972-07-22 15:00:00 TS 29.9809 136.543 main 384 345 PPPP_____PPP__ WP101972 30.0279 136.523 65 1 30.0691 136.579 9 970 0 0 29.9767 136.549 4 68 970 29.8046 136.514 T 65 970 30.0279 136.523 TC 65 29.9318 136.591 4 66 30.0279 136.523 65 970 150 14 294
1972189N11171 1972 57 WP MM TESS 1972-07-22 18:00:00 TS 30.2891 135.804 970 tokyo main 345 302 OOOO_____OPO__ jtwc_wp WP101972 30.4000 135.700 65 1 30.3000 136.000 9 970 0 0 0 30.2000 135.900 4 68 970 30.1000 135.800 T 65 970 30.4000 135.700 TC 65 30.2238 135.829 4 67 30.4000 135.700 65 970 120 14 296
1972189N11171 1972 57 WP MM TESS 1972-07-22 21:00:00 TS 30.6048 135.069 main 302 240 PPPP_____PPP__ WP101972 30.6844 134.984 67 1 30.5626 135.237 9 970 0 0 30.5122 135.172 4 68 970 30.5269 135.073 T 65 970 30.6844 134.984 TC 67 30.5786 135.052 4 68 30.6844 134.984 67 970 120 14 298
1972189N11171 1972 57 WP MM TESS 1972-07-23 00:00:00 TS 30.9714 134.329 970 tokyo main 225 166 OOOO_____OOO__ jtwc_wp WP101972 31.0000 134.300 70 1 30.9000 134.400 9 970 0 0 0 30.9000 134.400 4 68 970 31.0000 134.300 T 65 970 31.0000 134.300 TC 70 31.0000 134.300 4 70 31.0000 134.300 70 971 120 15 301
1972189N11171 1972 57 WP MM TESS 1972-07-23 03:00:00 TS 31.3727 133.552 main 155 100 PPPP_____PPP__ WP101972 31.3974 133.584 67 1 31.2900 133.569 9 970 0 0 31.3127 133.577 4 63 971 31.3930 133.420 T 65 970 31.3974 133.584 TC 67 31.4209 133.545 4 65 31.3974 133.584 67 972 120 16 305
1972189N11171 1972 57 WP MM TESS 1972-07-23 06:00:00 TS 31.8591 132.818 970 tokyo main 91 43 OOOO_____OPO__ jtwc_wp WP101972 31.9000 132.900 65 1 31.8000 132.800 9 970 0 0 0 31.8000 132.800 3 58 972 31.8000 132.600 T 65 970 31.9000 132.900 TC 65 31.9137 132.829 4 60 31.9000 132.900 65 973 120 16 312
1972189N11171 1972 57 WP MM TESS 1972-07-23 09:00:00 TS 32.4246 132.184 main 43 0 PPPP_____PPP__ WP101972 32.4823 132.262 57 0 32.4544 132.162 9 973 0 0 32.3469 132.161 3 53 972 32.2243 131.981 T 65 972 32.4823 132.262 TC 57 32.4995 132.199 4 55 32.4823 132.262 57 974 120 16 322
1972189N11171 1972 57 WP MM TESS 1972-07-23 12:00:00 TS 33.1143 131.643 976 tokyo main 0 0 OOOO_____OOO__ jtwc_wp WP101972 33.2000 131.700 50 0 33.2000 131.600 9 976 0 0 0 33.0000 131.600 3 48 973 32.8000 131.500 T 65 975 33.2000 131.700 TC 50 33.2000 131.700 2 50 33.2000 131.700 50 976 120 17 329
1972189N11171 1972 57 WP MM TESS 1972-07-23 15:00:00 TS 33.9264 131.128 main 9 0 PPPP_____PPP__ WP101972 34.0476 131.147 47 0 33.9203 130.976 9 978 0 0 33.7624 131.027 3 43 974 33.5951 131.019 T 60 977 34.0476 131.147 TC 47 34.0646 131.433 2 47 34.0476 131.147 47 978 120 19 337
1972189N11171 1972 57 WP MM TESS 1972-07-23 18:00:00 TS 34.8572 130.773 980 tokyo main 67 67 OOOO_____OPO__ jtwc_wp WP101972 35.0000 130.800 45 0 34.7000 130.500 9 980 0 0 0 34.6000 130.500 2 38 975 34.6000 130.700 STS 55 980 35.0000 130.800 TC 45 35.0364 131.293 2 45 35.0000 130.800 45 980 120 20 350
1972189N11171 1972 57 WP MM TESS 1972-07-23 21:00:00 TS 35.8436 130.695 main 101 98 PPPP_____PPP__ WP101972 36.0071 130.902 42 0 35.5845 130.352 9 982 0 0 35.4576 129.969 2 33 980 35.7599 130.625 STS 50 982 36.0071 130.902 TC 42 36.0401 131.182 2 42 36.0071 130.902 42 982 120 20 357
1972189N11171 1972 57 WP MM TESS 1972-07-24 00:00:00 TS 36.8080 130.652 985 tokyo main 107 94 OOOO_____OOO__ jtwc_wp WP101972 37.0000 131.000 40 0 36.5000 130.300 9 985 0 0 0 36.3000 129.600 1 29 985 37.0000 130.700 TS 45 985 37.0000 131.000 TC 40 37.0000 131.000 2 40 37.0000 131.000 40 984 120 19 351
1972189N11171 1972 57 WP MM TESS 1972-07-24 03:00:00 TS 37.6679 130.319 main 98 93 PPP______PPP__ WP101972 37.9029 130.592 35 0 37.3499 130.087 9 986 0 0 37.0871 129.501 1 29 985 TS 37.9029 130.592 TC 35 37.8619 130.551 2 36 37.9029 130.592 35 986 120 18 340
1972189N11171 1972 57 WP MM TESS 1972-07-24 06:00:00 TS 38.4600 129.903 988 tokyo main 113 108 OOO______OPO__ jtwc_wp WP101972 38.7000 130.000 30 -1 38.2000 129.800 2 988 0 0 0 37.8000 129.600 1 29 985 38.7000 130.000 TC 30 38.6600 130.016 2 32 38.7000 130.000 30 988 120 17 338
1972189N11171 1972 57 WP MM TESS 1972-07-24 09:00:00 TS 39.2035 129.510 main 109 67 PPP______PPP__ WP101972 39.4176 129.463 27 -1 39.1528 129.422 2 990 0 0 38.4376 129.777 1 29 987 39.4176 129.463 TC 27 39.3777 129.473 2 28 39.4176 129.463 27 990 120 15 338
1972189N11171 1972 57 WP MM TESS 1972-07-24 12:00:00 MX 39.8333 129.183 992 tokyo main 67 20 OOO______OOO__ jtwc_wp WP101972 40.0000 129.000 25 -1 40.0000 129.100 6 992 0 0 0 39.0000 130.000 1 29 990 40.0000 129.000 TC 25 40.0000 129.000 1 25 40.0000 129.000 25 992 120 12 340
1972189N11171 1972 57 WP MM TESS 1972-07-24 15:00:00 MX 40.3300 128.988 main 20 0 PPP______PPP__ WP101972 40.4297 128.696 22 -1 40.6344 129.071 6 994 0 0 39.5371 130.106 1 24 992 40.4297 128.696 TC 22 40.5197 128.662 1 22 40.4297 128.696 22 994 90 9 346
1972189N11171 1972 57 WP MM TESS 1972-07-24 18:00:00 MX 40.7407 128.880 996 tokyo main 0 0 OOO______OPO__ jtwc_wp WP101972 40.8000 128.500 20 -1 41.0000 129.000 6 996 0 0 0 40.0000 130.300 0 19 995 40.8000 128.500 TC 20 40.9580 128.441 1 20 40.8000 128.500 20 996 60 8 346
1972189N11171 1972 57 WP MM TESS 1972-07-24 21:00:00 MX 41.0574 128.741 main 0 0 PPP______PPP__ WP101972 41.2277 128.343 17 -1 41.0004 128.565 6 998 0 0 40.3759 130.726 0 19 997 41.2277 128.343 TC 17 41.3424 128.301 1 17 41.2277 128.343 17 997 60 6 334
1972189N11171 1972 57 WP MM TESS 1972-07-25 00:00:00 MX 41.3125 128.512 1000 tokyo main 0 0 OOO______OOO__ jtwc_wp WP101972 41.7000 128.200 15 -1 41.0000 128.000 6 1000 0 0 0 40.7000 131.300 0 19 1000 41.7000 128.200 TC 15 41.7000 128.200 1 15 41.7000 128.200 15 999 60 10 289
1972189N11171 1972 57 WP MM TESS 1972-07-25 03:00:00 ET 41.3750 127.481 main 0 0 _P____________ WP101972 -1 41.3750 127.481 6 1000 0 0 0 TC 1 13 301
1972189N11171 1972 57 WP MM TESS 1972-07-25 06:00:00 ET 42.0000 127.000 1000 tokyo main 0 _O____________ -1 42.0000 127.000 6 1000 0 0 0 1 14 330

Digital Typhoon Data and Search

About IBTrACS Database

This database is a web-friendly format of International Best Track Archive for Climate Stewardship (IBTrACS), a global best track data archive curated by NOAA dating back to 1842.

Updated: 2021-12-03